sensor_id;sensor_type;location;lat;lon;timestamp;P1;durP1;ratioP1;P2;durP2;ratioP2
20449;SDS011;10384;51.940;8.432;2023-05-21T00:01:01;8.53;;;4.53;;
20449;SDS011;10384;51.940;8.432;2023-05-21T00:03:29;7.90;;;4.37;;
20449;SDS011;10384;51.940;8.432;2023-05-21T00:05:55;7.53;;;4.47;;
20449;SDS011;10384;51.940;8.432;2023-05-21T00:08:22;8.50;;;4.60;;
20449;SDS011;10384;51.940;8.432;2023-05-21T00:10:48;11.17;;;4.67;;
20449;SDS011;10384;51.940;8.432;2023-05-21T00:13:14;8.20;;;4.57;;
20449;SDS011;10384;51.940;8.432;2023-05-21T00:15:40;7.53;;;4.50;;
20449;SDS011;10384;51.940;8.432;2023-05-21T00:18:06;10.13;;;4.63;;
20449;SDS011;10384;51.940;8.432;2023-05-21T00:20:32;7.00;;;4.90;;
20449;SDS011;10384;51.940;8.432;2023-05-21T00:22:58;7.60;;;4.97;;
20449;SDS011;10384;51.940;8.432;2023-05-21T00:25:28;9.43;;;5.40;;
20449;SDS011;10384;51.940;8.432;2023-05-21T00:27:55;8.67;;;5.47;;
20449;SDS011;10384;51.940;8.432;2023-05-21T00:30:21;8.13;;;5.67;;
20449;SDS011;10384;51.940;8.432;2023-05-21T00:32:47;9.00;;;5.43;;
20449;SDS011;10384;51.940;8.432;2023-05-21T00:35:13;9.20;;;5.40;;
20449;SDS011;10384;51.940;8.432;2023-05-21T00:37:39;9.87;;;5.30;;
20449;SDS011;10384;51.940;8.432;2023-05-21T00:40:05;8.23;;;5.10;;
20449;SDS011;10384;51.940;8.432;2023-05-21T00:42:33;8.73;;;5.00;;
20449;SDS011;10384;51.940;8.432;2023-05-21T00:45:04;8.93;;;5.37;;
20449;SDS011;10384;51.940;8.432;2023-05-21T00:47:30;9.63;;;5.73;;
20449;SDS011;10384;51.940;8.432;2023-05-21T00:49:57;11.57;;;5.47;;
20449;SDS011;10384;51.940;8.432;2023-05-21T00:52:23;10.47;;;5.50;;
20449;SDS011;10384;51.940;8.432;2023-05-21T00:54:51;7.73;;;5.40;;
20449;SDS011;10384;51.940;8.432;2023-05-21T00:57:17;8.43;;;5.03;;
20449;SDS011;10384;51.940;8.432;2023-05-21T00:59:47;9.10;;;5.30;;
20449;SDS011;10384;51.940;8.432;2023-05-21T01:02:14;9.97;;;4.83;;
20449;SDS011;10384;51.940;8.432;2023-05-21T01:04:42;8.40;;;5.60;;
20449;SDS011;10384;51.940;8.432;2023-05-21T01:07:08;11.57;;;5.53;;
20449;SDS011;10384;51.940;8.432;2023-05-21T01:09:34;8.17;;;5.47;;
20449;SDS011;10384;51.940;8.432;2023-05-21T01:12:00;8.40;;;5.47;;
20449;SDS011;10384;51.940;8.432;2023-05-21T01:14:27;10.33;;;6.27;;
20449;SDS011;10384;51.940;8.432;2023-05-21T01:16:53;11.30;;;5.93;;
20449;SDS011;10384;51.940;8.432;2023-05-21T01:19:20;7.73;;;5.20;;
20449;SDS011;10384;51.940;8.432;2023-05-21T01:21:54;12.13;;;5.97;;
20449;SDS011;10384;51.940;8.432;2023-05-21T01:24:21;9.17;;;5.40;;
20449;SDS011;10384;51.940;8.432;2023-05-21T01:26:47;8.63;;;6.00;;
20449;SDS011;10384;51.940;8.432;2023-05-21T01:29:13;8.93;;;5.53;;
20449;SDS011;10384;51.940;8.432;2023-05-21T01:34:05;11.67;;;6.30;;
20449;SDS011;10384;51.940;8.432;2023-05-21T01:36:35;9.63;;;6.07;;
20449;SDS011;10384;51.940;8.432;2023-05-21T01:39:38;9.60;;;5.90;;
20449;SDS011;10384;51.940;8.432;2023-05-21T01:41:57;9.63;;;5.90;;
20449;SDS011;10384;51.940;8.432;2023-05-21T01:44:23;11.63;;;6.03;;
20449;SDS011;10384;51.940;8.432;2023-05-21T01:46:50;11.40;;;5.80;;
20449;SDS011;10384;51.940;8.432;2023-05-21T01:49:17;8.67;;;5.37;;
20449;SDS011;10384;51.940;8.432;2023-05-21T01:51:44;7.53;;;5.20;;
20449;SDS011;10384;51.940;8.432;2023-05-21T01:54:10;12.00;;;6.03;;
20449;SDS011;10384;51.940;8.432;2023-05-21T01:56:36;10.23;;;6.07;;
20449;SDS011;10384;51.940;8.432;2023-05-21T01:59:02;9.20;;;5.70;;
20449;SDS011;10384;51.940;8.432;2023-05-21T02:01:28;11.30;;;5.73;;
20449;SDS011;10384;51.940;8.432;2023-05-21T02:03:55;10.00;;;5.43;;
20449;SDS011;10384;51.940;8.432;2023-05-21T02:06:21;11.87;;;5.50;;
20449;SDS011;10384;51.940;8.432;2023-05-21T02:08:48;11.53;;;6.37;;
20449;SDS011;10384;51.940;8.432;2023-05-21T02:11:14;9.80;;;5.40;;
20449;SDS011;10384;51.940;8.432;2023-05-21T02:13:40;10.27;;;6.83;;
20449;SDS011;10384;51.940;8.432;2023-05-21T02:16:07;8.93;;;5.90;;
20449;SDS011;10384;51.940;8.432;2023-05-21T02:18:40;9.00;;;5.30;;
20449;SDS011;10384;51.940;8.432;2023-05-21T02:21:09;11.53;;;5.13;;
20449;SDS011;10384;51.940;8.432;2023-05-21T02:23:35;8.73;;;5.43;;
20449;SDS011;10384;51.940;8.432;2023-05-21T02:26:01;10.03;;;6.00;;
20449;SDS011;10384;51.940;8.432;2023-05-21T02:28:27;8.70;;;5.37;;
20449;SDS011;10384;51.940;8.432;2023-05-21T02:30:54;8.90;;;5.40;;
20449;SDS011;10384;51.940;8.432;2023-05-21T02:33:20;8.27;;;5.57;;
20449;SDS011;10384;51.940;8.432;2023-05-21T02:35:46;12.93;;;6.37;;
20449;SDS011;10384;51.940;8.432;2023-05-21T02:38:12;10.00;;;6.70;;
20449;SDS011;10384;51.940;8.432;2023-05-21T02:40:43;11.30;;;5.80;;
20449;SDS011;10384;51.940;8.432;2023-05-21T02:43:09;12.03;;;6.37;;
20449;SDS011;10384;51.940;8.432;2023-05-21T02:45:35;12.67;;;5.70;;
20449;SDS011;10384;51.940;8.432;2023-05-21T02:48:01;9.20;;;5.23;;
20449;SDS011;10384;51.940;8.432;2023-05-21T02:50:27;9.10;;;5.60;;
20449;SDS011;10384;51.940;8.432;2023-05-21T02:52:53;9.30;;;5.50;;
20449;SDS011;10384;51.940;8.432;2023-05-21T02:55:19;9.80;;;5.60;;
20449;SDS011;10384;51.940;8.432;2023-05-21T02:57:46;9.80;;;5.30;;
20449;SDS011;10384;51.940;8.432;2023-05-21T03:00:12;11.00;;;5.57;;
20449;SDS011;10384;51.940;8.432;2023-05-21T03:02:39;10.63;;;5.50;;
20449;SDS011;10384;51.940;8.432;2023-05-21T03:05:05;9.27;;;5.60;;
20449;SDS011;10384;51.940;8.432;2023-05-21T03:07:31;10.93;;;5.40;;
20449;SDS011;10384;51.940;8.432;2023-05-21T03:09:57;10.37;;;5.60;;
20449;SDS011;10384;51.940;8.432;2023-05-21T03:12:23;11.17;;;6.23;;
20449;SDS011;10384;51.940;8.432;2023-05-21T03:14:49;10.80;;;5.87;;
20449;SDS011;10384;51.940;8.432;2023-05-21T03:17:15;9.57;;;6.20;;
20449;SDS011;10384;51.940;8.432;2023-05-21T03:19:42;11.73;;;6.20;;
20449;SDS011;10384;51.940;8.432;2023-05-21T03:22:08;19.37;;;9.50;;
20449;SDS011;10384;51.940;8.432;2023-05-21T03:24:35;17.47;;;9.23;;
20449;SDS011;10384;51.940;8.432;2023-05-21T03:27:02;10.83;;;6.60;;
20449;SDS011;10384;51.940;8.432;2023-05-21T03:29:30;15.03;;;6.90;;
20449;SDS011;10384;51.940;8.432;2023-05-21T03:31:56;9.90;;;6.17;;
20449;SDS011;10384;51.940;8.432;2023-05-21T03:34:22;11.80;;;7.20;;
20449;SDS011;10384;51.940;8.432;2023-05-21T03:36:48;10.60;;;6.60;;
20449;SDS011;10384;51.940;8.432;2023-05-21T03:39:15;9.60;;;5.73;;
20449;SDS011;10384;51.940;8.432;2023-05-21T03:41:41;7.10;;;5.00;;
20449;SDS011;10384;51.940;8.432;2023-05-21T03:44:07;9.37;;;5.93;;
20449;SDS011;10384;51.940;8.432;2023-05-21T03:46:33;10.00;;;6.20;;
20449;SDS011;10384;51.940;8.432;2023-05-21T03:48:59;8.33;;;5.40;;
20449;SDS011;10384;51.940;8.432;2023-05-21T03:51:26;11.47;;;6.43;;
20449;SDS011;10384;51.940;8.432;2023-05-21T03:53:54;10.40;;;5.50;;
20449;SDS011;10384;51.940;8.432;2023-05-21T03:56:20;10.93;;;6.07;;
20449;SDS011;10384;51.940;8.432;2023-05-21T03:58:46;7.60;;;4.90;;
20449;SDS011;10384;51.940;8.432;2023-05-21T04:01:12;10.87;;;5.87;;
20449;SDS011;10384;51.940;8.432;2023-05-21T04:03:38;10.80;;;6.30;;
20449;SDS011;10384;51.940;8.432;2023-05-21T04:06:04;10.73;;;6.20;;
20449;SDS011;10384;51.940;8.432;2023-05-21T04:08:31;10.13;;;5.63;;
20449;SDS011;10384;51.940;8.432;2023-05-21T04:10:57;12.47;;;6.07;;
20449;SDS011;10384;51.940;8.432;2023-05-21T04:13:23;10.67;;;5.90;;
20449;SDS011;10384;51.940;8.432;2023-05-21T04:15:49;10.10;;;6.33;;
20449;SDS011;10384;51.940;8.432;2023-05-21T04:18:15;10.60;;;5.57;;
20449;SDS011;10384;51.940;8.432;2023-05-21T04:20:41;11.33;;;5.77;;
20449;SDS011;10384;51.940;8.432;2023-05-21T04:23:07;12.07;;;6.00;;
20449;SDS011;10384;51.940;8.432;2023-05-21T04:25:33;9.37;;;5.60;;
20449;SDS011;10384;51.940;8.432;2023-05-21T04:27:59;11.73;;;6.87;;
20449;SDS011;10384;51.940;8.432;2023-05-21T04:30:26;12.30;;;7.50;;
20449;SDS011;10384;51.940;8.432;2023-05-21T04:32:52;16.23;;;7.37;;
20449;SDS011;10384;51.940;8.432;2023-05-21T04:35:18;13.30;;;6.57;;
20449;SDS011;10384;51.940;8.432;2023-05-21T04:37:44;17.43;;;8.23;;
20449;SDS011;10384;51.940;8.432;2023-05-21T04:40:11;12.20;;;6.47;;
20449;SDS011;10384;51.940;8.432;2023-05-21T04:42:42;10.27;;;6.33;;
20449;SDS011;10384;51.940;8.432;2023-05-21T04:45:08;11.13;;;6.13;;
20449;SDS011;10384;51.940;8.432;2023-05-21T04:47:35;11.13;;;6.67;;
20449;SDS011;10384;51.940;8.432;2023-05-21T04:50:01;12.00;;;6.47;;
20449;SDS011;10384;51.940;8.432;2023-05-21T04:52:28;17.60;;;9.60;;
20449;SDS011;10384;51.940;8.432;2023-05-21T04:54:54;13.37;;;6.97;;
20449;SDS011;10384;51.940;8.432;2023-05-21T04:57:21;13.33;;;6.50;;
20449;SDS011;10384;51.940;8.432;2023-05-21T04:59:49;10.43;;;6.73;;
20449;SDS011;10384;51.940;8.432;2023-05-21T05:02:15;11.23;;;6.47;;
20449;SDS011;10384;51.940;8.432;2023-05-21T05:04:41;11.63;;;6.67;;
20449;SDS011;10384;51.940;8.432;2023-05-21T05:07:08;13.43;;;5.73;;
20449;SDS011;10384;51.940;8.432;2023-05-21T05:09:34;10.70;;;5.70;;
20449;SDS011;10384;51.940;8.432;2023-05-21T05:12:00;13.13;;;6.27;;
20449;SDS011;10384;51.940;8.432;2023-05-21T05:14:26;12.30;;;6.17;;
20449;SDS011;10384;51.940;8.432;2023-05-21T05:16:52;11.47;;;6.73;;
20449;SDS011;10384;51.940;8.432;2023-05-21T05:19:18;10.50;;;6.17;;
20449;SDS011;10384;51.940;8.432;2023-05-21T05:21:44;11.70;;;6.87;;
20449;SDS011;10384;51.940;8.432;2023-05-21T05:24:10;10.73;;;5.83;;
20449;SDS011;10384;51.940;8.432;2023-05-21T05:26:35;10.73;;;5.60;;
20449;SDS011;10384;51.940;8.432;2023-05-21T05:29:02;13.17;;;6.00;;
20449;SDS011;10384;51.940;8.432;2023-05-21T05:31:27;10.70;;;6.10;;
20449;SDS011;10384;51.940;8.432;2023-05-21T05:33:53;12.13;;;6.20;;
20449;SDS011;10384;51.940;8.432;2023-05-21T05:36:20;11.87;;;6.27;;
20449;SDS011;10384;51.940;8.432;2023-05-21T05:38:46;14.00;;;7.10;;
20449;SDS011;10384;51.940;8.432;2023-05-21T05:41:12;10.17;;;6.53;;
20449;SDS011;10384;51.940;8.432;2023-05-21T05:43:38;12.17;;;6.87;;
20449;SDS011;10384;51.940;8.432;2023-05-21T05:46:04;14.70;;;6.73;;
20449;SDS011;10384;51.940;8.432;2023-05-21T05:48:30;12.83;;;7.40;;
20449;SDS011;10384;51.940;8.432;2023-05-21T05:50:56;14.67;;;7.40;;
20449;SDS011;10384;51.940;8.432;2023-05-21T05:53:22;10.03;;;6.40;;
20449;SDS011;10384;51.940;8.432;2023-05-21T05:55:48;11.07;;;6.33;;
20449;SDS011;10384;51.940;8.432;2023-05-21T05:58:14;13.33;;;6.40;;
20449;SDS011;10384;51.940;8.432;2023-05-21T06:00:40;11.87;;;6.50;;
20449;SDS011;10384;51.940;8.432;2023-05-21T06:03:06;11.20;;;6.27;;
20449;SDS011;10384;51.940;8.432;2023-05-21T06:05:32;13.87;;;6.77;;
20449;SDS011;10384;51.940;8.432;2023-05-21T06:07:58;13.60;;;6.97;;
20449;SDS011;10384;51.940;8.432;2023-05-21T06:10:25;9.90;;;6.07;;
20449;SDS011;10384;51.940;8.432;2023-05-21T06:12:51;12.40;;;6.70;;
20449;SDS011;10384;51.940;8.432;2023-05-21T06:15:17;11.60;;;6.00;;
20449;SDS011;10384;51.940;8.432;2023-05-21T06:17:43;10.00;;;5.70;;
20449;SDS011;10384;51.940;8.432;2023-05-21T06:20:09;10.10;;;5.73;;
20449;SDS011;10384;51.940;8.432;2023-05-21T06:22:36;13.90;;;6.73;;
20449;SDS011;10384;51.940;8.432;2023-05-21T06:25:02;12.53;;;6.70;;
20449;SDS011;10384;51.940;8.432;2023-05-21T06:27:28;12.90;;;7.03;;
20449;SDS011;10384;51.940;8.432;2023-05-21T06:29:54;11.30;;;6.67;;
20449;SDS011;10384;51.940;8.432;2023-05-21T06:32:21;13.33;;;7.60;;
20449;SDS011;10384;51.940;8.432;2023-05-21T06:34:47;10.70;;;6.33;;
20449;SDS011;10384;51.940;8.432;2023-05-21T06:37:13;13.47;;;6.83;;
20449;SDS011;10384;51.940;8.432;2023-05-21T06:39:39;11.90;;;6.50;;
20449;SDS011;10384;51.940;8.432;2023-05-21T06:42:05;11.47;;;6.53;;
20449;SDS011;10384;51.940;8.432;2023-05-21T06:44:31;11.50;;;6.50;;
20449;SDS011;10384;51.940;8.432;2023-05-21T06:46:57;12.50;;;6.27;;
20449;SDS011;10384;51.940;8.432;2023-05-21T06:49:23;13.97;;;6.67;;
20449;SDS011;10384;51.940;8.432;2023-05-21T06:51:50;10.83;;;6.67;;
20449;SDS011;10384;51.940;8.432;2023-05-21T06:54:16;12.60;;;7.17;;
20449;SDS011;10384;51.940;8.432;2023-05-21T06:56:42;13.50;;;6.50;;
20449;SDS011;10384;51.940;8.432;2023-05-21T06:59:11;14.03;;;7.40;;
20449;SDS011;10384;51.940;8.432;2023-05-21T07:01:37;9.50;;;5.73;;
20449;SDS011;10384;51.940;8.432;2023-05-21T07:04:06;9.97;;;5.57;;
20449;SDS011;10384;51.940;8.432;2023-05-21T07:06:32;10.87;;;6.07;;
20449;SDS011;10384;51.940;8.432;2023-05-21T07:08:59;9.90;;;6.30;;
20449;SDS011;10384;51.940;8.432;2023-05-21T07:11:25;15.57;;;7.80;;
20449;SDS011;10384;51.940;8.432;2023-05-21T07:13:53;14.50;;;6.60;;
20449;SDS011;10384;51.940;8.432;2023-05-21T07:16:19;11.83;;;6.40;;
20449;SDS011;10384;51.940;8.432;2023-05-21T07:18:45;9.93;;;6.07;;
20449;SDS011;10384;51.940;8.432;2023-05-21T07:21:11;13.27;;;6.87;;
20449;SDS011;10384;51.940;8.432;2023-05-21T07:23:37;13.10;;;7.13;;
20449;SDS011;10384;51.940;8.432;2023-05-21T07:26:03;13.87;;;7.47;;
20449;SDS011;10384;51.940;8.432;2023-05-21T07:28:29;12.40;;;6.60;;
20449;SDS011;10384;51.940;8.432;2023-05-21T07:30:55;13.27;;;7.33;;
20449;SDS011;10384;51.940;8.432;2023-05-21T07:33:21;12.50;;;6.33;;
20449;SDS011;10384;51.940;8.432;2023-05-21T07:35:47;11.97;;;6.63;;
20449;SDS011;10384;51.940;8.432;2023-05-21T07:38:13;13.90;;;7.00;;
20449;SDS011;10384;51.940;8.432;2023-05-21T07:40:39;12.13;;;6.47;;
20449;SDS011;10384;51.940;8.432;2023-05-21T07:43:05;13.23;;;6.43;;
20449;SDS011;10384;51.940;8.432;2023-05-21T07:45:31;13.73;;;6.57;;
20449;SDS011;10384;51.940;8.432;2023-05-21T07:47:57;14.00;;;7.70;;
20449;SDS011;10384;51.940;8.432;2023-05-21T07:50:23;15.60;;;7.63;;
20449;SDS011;10384;51.940;8.432;2023-05-21T07:52:50;12.40;;;7.33;;
20449;SDS011;10384;51.940;8.432;2023-05-21T07:55:16;13.83;;;7.93;;
20449;SDS011;10384;51.940;8.432;2023-05-21T07:57:42;12.67;;;7.17;;
20449;SDS011;10384;51.940;8.432;2023-05-21T08:00:09;12.67;;;7.07;;
20449;SDS011;10384;51.940;8.432;2023-05-21T08:02:38;12.00;;;7.00;;
20449;SDS011;10384;51.940;8.432;2023-05-21T08:05:04;13.67;;;6.90;;
20449;SDS011;10384;51.940;8.432;2023-05-21T08:07:30;13.10;;;7.57;;
20449;SDS011;10384;51.940;8.432;2023-05-21T08:09:56;14.97;;;7.90;;
20449;SDS011;10384;51.940;8.432;2023-05-21T08:12:23;12.37;;;7.30;;
20449;SDS011;10384;51.940;8.432;2023-05-21T08:14:48;13.33;;;6.27;;
20449;SDS011;10384;51.940;8.432;2023-05-21T08:17:15;13.80;;;7.87;;
20449;SDS011;10384;51.940;8.432;2023-05-21T08:19:41;11.87;;;7.20;;
20449;SDS011;10384;51.940;8.432;2023-05-21T08:22:07;12.87;;;6.53;;
20449;SDS011;10384;51.940;8.432;2023-05-21T08:24:33;13.00;;;7.30;;
20449;SDS011;10384;51.940;8.432;2023-05-21T08:26:59;15.17;;;7.87;;
20449;SDS011;10384;51.940;8.432;2023-05-21T08:29:25;12.47;;;6.90;;
20449;SDS011;10384;51.940;8.432;2023-05-21T08:31:51;13.20;;;8.00;;
20449;SDS011;10384;51.940;8.432;2023-05-21T08:34:17;14.00;;;6.97;;
20449;SDS011;10384;51.940;8.432;2023-05-21T08:36:43;13.70;;;7.67;;
20449;SDS011;10384;51.940;8.432;2023-05-21T08:39:11;15.77;;;7.80;;
20449;SDS011;10384;51.940;8.432;2023-05-21T08:41:37;13.37;;;7.50;;
20449;SDS011;10384;51.940;8.432;2023-05-21T08:44:04;13.10;;;7.50;;
20449;SDS011;10384;51.940;8.432;2023-05-21T08:46:34;13.40;;;7.83;;
20449;SDS011;10384;51.940;8.432;2023-05-21T08:49:00;13.43;;;7.77;;
20449;SDS011;10384;51.940;8.432;2023-05-21T08:51:27;13.43;;;7.20;;
20449;SDS011;10384;51.940;8.432;2023-05-21T08:53:53;13.63;;;7.77;;
20449;SDS011;10384;51.940;8.432;2023-05-21T08:56:20;15.63;;;8.10;;
20449;SDS011;10384;51.940;8.432;2023-05-21T08:58:47;16.13;;;9.10;;
20449;SDS011;10384;51.940;8.432;2023-05-21T09:01:13;15.47;;;8.70;;
20449;SDS011;10384;51.940;8.432;2023-05-21T09:03:42;14.50;;;8.50;;
20449;SDS011;10384;51.940;8.432;2023-05-21T09:06:09;22.73;;;11.43;;
20449;SDS011;10384;51.940;8.432;2023-05-21T09:08:38;15.07;;;8.20;;
20449;SDS011;10384;51.940;8.432;2023-05-21T09:11:07;13.97;;;8.00;;
20449;SDS011;10384;51.940;8.432;2023-05-21T09:13:33;13.03;;;7.77;;
20449;SDS011;10384;51.940;8.432;2023-05-21T09:16:00;14.60;;;7.90;;
20449;SDS011;10384;51.940;8.432;2023-05-21T09:18:26;17.50;;;8.63;;
20449;SDS011;10384;51.940;8.432;2023-05-21T09:20:52;14.20;;;7.80;;
20449;SDS011;10384;51.940;8.432;2023-05-21T09:23:20;15.77;;;8.00;;
20449;SDS011;10384;51.940;8.432;2023-05-21T09:25:47;13.80;;;7.47;;
20449;SDS011;10384;51.940;8.432;2023-05-21T09:28:13;15.13;;;7.97;;
20449;SDS011;10384;51.940;8.432;2023-05-21T09:30:43;17.50;;;8.90;;
20449;SDS011;10384;51.940;8.432;2023-05-21T09:33:09;14.83;;;8.03;;
20449;SDS011;10384;51.940;8.432;2023-05-21T09:35:35;17.17;;;8.23;;
20449;SDS011;10384;51.940;8.432;2023-05-21T09:38:02;15.93;;;7.87;;
20449;SDS011;10384;51.940;8.432;2023-05-21T09:40:33;14.83;;;7.57;;
20449;SDS011;10384;51.940;8.432;2023-05-21T09:42:59;14.20;;;7.50;;
20449;SDS011;10384;51.940;8.432;2023-05-21T09:45:26;13.20;;;8.17;;
20449;SDS011;10384;51.940;8.432;2023-05-21T09:47:53;13.37;;;7.53;;
20449;SDS011;10384;51.940;8.432;2023-05-21T09:52:46;15.13;;;7.67;;
20449;SDS011;10384;51.940;8.432;2023-05-21T09:55:12;12.13;;;6.77;;
20449;SDS011;10384;51.940;8.432;2023-05-21T09:57:39;14.13;;;8.33;;
20449;SDS011;10384;51.940;8.432;2023-05-21T10:00:05;18.97;;;10.97;;
20449;SDS011;10384;51.940;8.432;2023-05-21T10:02:33;14.03;;;8.03;;
20449;SDS011;10384;51.940;8.432;2023-05-21T10:05:01;12.40;;;7.40;;
20449;SDS011;10384;51.940;8.432;2023-05-21T10:07:30;13.50;;;7.73;;
20449;SDS011;10384;51.940;8.432;2023-05-21T10:09:56;14.80;;;8.57;;
20449;SDS011;10384;51.940;8.432;2023-05-21T10:12:23;14.50;;;7.83;;
20449;SDS011;10384;51.940;8.432;2023-05-21T10:14:50;16.40;;;8.43;;
20449;SDS011;10384;51.940;8.432;2023-05-21T10:17:16;13.87;;;8.23;;
20449;SDS011;10384;51.940;8.432;2023-05-21T10:19:43;15.20;;;9.17;;
20449;SDS011;10384;51.940;8.432;2023-05-21T10:22:09;17.07;;;10.03;;
20449;SDS011;10384;51.940;8.432;2023-05-21T10:24:35;18.80;;;9.90;;
20449;SDS011;10384;51.940;8.432;2023-05-21T10:27:02;16.13;;;8.53;;
20449;SDS011;10384;51.940;8.432;2023-05-21T10:29:29;17.97;;;9.13;;
20449;SDS011;10384;51.940;8.432;2023-05-21T10:31:55;17.27;;;9.30;;
20449;SDS011;10384;51.940;8.432;2023-05-21T10:34:22;15.43;;;8.47;;
20449;SDS011;10384;51.940;8.432;2023-05-21T10:36:48;15.63;;;8.83;;
20449;SDS011;10384;51.940;8.432;2023-05-21T10:39:15;13.73;;;8.23;;
20449;SDS011;10384;51.940;8.432;2023-05-21T10:49:44;15.20;;;7.97;;
20449;SDS011;10384;51.940;8.432;2023-05-21T10:52:30;17.33;;;8.50;;
20449;SDS011;10384;51.940;8.432;2023-05-21T11:00:20;14.00;;;7.70;;
20449;SDS011;10384;51.940;8.432;2023-05-21T11:02:47;14.30;;;7.83;;
20449;SDS011;10384;51.940;8.432;2023-05-21T11:05:13;12.40;;;7.80;;
20449;SDS011;10384;51.940;8.432;2023-05-21T11:07:57;15.37;;;9.33;;
20449;SDS011;10384;51.940;8.432;2023-05-21T11:10:29;15.43;;;9.30;;
20449;SDS011;10384;51.940;8.432;2023-05-21T11:13:03;15.37;;;8.70;;
20449;SDS011;10384;51.940;8.432;2023-05-21T11:15:30;16.30;;;9.30;;
20449;SDS011;10384;51.940;8.432;2023-05-21T11:17:56;15.80;;;9.97;;
20449;SDS011;10384;51.940;8.432;2023-05-21T11:20:22;18.37;;;9.97;;
20449;SDS011;10384;51.940;8.432;2023-05-21T11:22:48;13.70;;;8.10;;
20449;SDS011;10384;51.940;8.432;2023-05-21T11:25:14;14.90;;;9.13;;
20449;SDS011;10384;51.940;8.432;2023-05-21T11:27:40;15.23;;;8.60;;
20449;SDS011;10384;51.940;8.432;2023-05-21T11:30:07;13.63;;;7.77;;
20449;SDS011;10384;51.940;8.432;2023-05-21T11:32:37;13.33;;;7.67;;
20449;SDS011;10384;51.940;8.432;2023-05-21T11:35:04;14.00;;;8.73;;
20449;SDS011;10384;51.940;8.432;2023-05-21T11:37:30;17.47;;;9.33;;
20449;SDS011;10384;51.940;8.432;2023-05-21T11:42:47;14.93;;;8.97;;
20449;SDS011;10384;51.940;8.432;2023-05-21T11:45:15;17.13;;;8.70;;
20449;SDS011;10384;51.940;8.432;2023-05-21T11:47:41;17.93;;;8.87;;
20449;SDS011;10384;51.940;8.432;2023-05-21T11:50:11;17.93;;;8.67;;
20449;SDS011;10384;51.940;8.432;2023-05-21T11:52:37;15.63;;;8.70;;
20449;SDS011;10384;51.940;8.432;2023-05-21T11:55:05;15.07;;;8.97;;
20449;SDS011;10384;51.940;8.432;2023-05-21T11:57:31;14.53;;;8.73;;
20449;SDS011;10384;51.940;8.432;2023-05-21T11:59:58;14.73;;;8.93;;
20449;SDS011;10384;51.940;8.432;2023-05-21T12:02:25;14.87;;;9.50;;
20449;SDS011;10384;51.940;8.432;2023-05-21T12:04:52;16.97;;;9.87;;
20449;SDS011;10384;51.940;8.432;2023-05-21T12:07:18;17.97;;;9.60;;
20449;SDS011;10384;51.940;8.432;2023-05-21T12:09:49;17.27;;;9.73;;
20449;SDS011;10384;51.940;8.432;2023-05-21T12:12:25;15.37;;;9.40;;
20449;SDS011;10384;51.940;8.432;2023-05-21T12:14:52;17.30;;;10.23;;
20449;SDS011;10384;51.940;8.432;2023-05-21T12:17:19;16.60;;;9.80;;
20449;SDS011;10384;51.940;8.432;2023-05-21T12:19:46;15.00;;;8.80;;
20449;SDS011;10384;51.940;8.432;2023-05-21T12:22:12;13.83;;;9.03;;
20449;SDS011;10384;51.940;8.432;2023-05-21T12:24:42;15.10;;;8.67;;
20449;SDS011;10384;51.940;8.432;2023-05-21T12:27:08;16.67;;;10.13;;
20449;SDS011;10384;51.940;8.432;2023-05-21T12:29:37;13.13;;;8.10;;
20449;SDS011;10384;51.940;8.432;2023-05-21T12:32:04;14.43;;;8.67;;
20449;SDS011;10384;51.940;8.432;2023-05-21T12:34:44;15.37;;;9.63;;
20449;SDS011;10384;51.940;8.432;2023-05-21T12:37:14;15.10;;;8.47;;
20449;SDS011;10384;51.940;8.432;2023-05-21T12:39:43;19.37;;;10.63;;
20449;SDS011;10384;51.940;8.432;2023-05-21T12:42:10;14.07;;;8.80;;
20449;SDS011;10384;51.940;8.432;2023-05-21T12:44:42;14.90;;;9.10;;
20449;SDS011;10384;51.940;8.432;2023-05-21T12:47:08;16.83;;;8.93;;
20449;SDS011;10384;51.940;8.432;2023-05-21T12:49:35;16.73;;;10.13;;
20449;SDS011;10384;51.940;8.432;2023-05-21T12:52:02;15.00;;;8.17;;
20449;SDS011;10384;51.940;8.432;2023-05-21T12:54:31;14.57;;;8.87;;
20449;SDS011;10384;51.940;8.432;2023-05-21T12:57:04;15.43;;;9.47;;
20449;SDS011;10384;51.940;8.432;2023-05-21T12:59:38;16.17;;;9.30;;
20449;SDS011;10384;51.940;8.432;2023-05-21T13:02:04;14.57;;;9.03;;
20449;SDS011;10384;51.940;8.432;2023-05-21T13:04:30;13.27;;;8.53;;
20449;SDS011;10384;51.940;8.432;2023-05-21T13:06:56;14.83;;;8.90;;
20449;SDS011;10384;51.940;8.432;2023-05-21T13:09:22;15.30;;;9.37;;
20449;SDS011;10384;51.940;8.432;2023-05-21T13:11:48;15.70;;;9.27;;
20449;SDS011;10384;51.940;8.432;2023-05-21T13:14:14;16.43;;;9.50;;
20449;SDS011;10384;51.940;8.432;2023-05-21T13:16:40;13.27;;;8.30;;
20449;SDS011;10384;51.940;8.432;2023-05-21T13:19:06;16.13;;;8.53;;
20449;SDS011;10384;51.940;8.432;2023-05-21T13:21:32;15.57;;;9.07;;
20449;SDS011;10384;51.940;8.432;2023-05-21T13:23:57;14.87;;;9.13;;
20449;SDS011;10384;51.940;8.432;2023-05-21T13:26:23;16.80;;;9.30;;
20449;SDS011;10384;51.940;8.432;2023-05-21T13:28:49;13.03;;;7.50;;
20449;SDS011;10384;51.940;8.432;2023-05-21T13:31:15;13.83;;;8.50;;
20449;SDS011;10384;51.940;8.432;2023-05-21T13:33:42;14.40;;;8.80;;
20449;SDS011;10384;51.940;8.432;2023-05-21T13:36:08;14.73;;;9.27;;
20449;SDS011;10384;51.940;8.432;2023-05-21T13:38:34;14.60;;;8.40;;
20449;SDS011;10384;51.940;8.432;2023-05-21T13:41:00;14.67;;;9.13;;
20449;SDS011;10384;51.940;8.432;2023-05-21T13:43:26;14.97;;;9.43;;
20449;SDS011;10384;51.940;8.432;2023-05-21T13:45:52;15.50;;;9.53;;
20449;SDS011;10384;51.940;8.432;2023-05-21T13:48:18;14.63;;;9.20;;
20449;SDS011;10384;51.940;8.432;2023-05-21T13:50:44;15.20;;;9.17;;
20449;SDS011;10384;51.940;8.432;2023-05-21T13:53:10;13.77;;;8.53;;
20449;SDS011;10384;51.940;8.432;2023-05-21T13:55:36;15.50;;;9.00;;
20449;SDS011;10384;51.940;8.432;2023-05-21T13:58:02;15.83;;;9.20;;
20449;SDS011;10384;51.940;8.432;2023-05-21T14:00:28;14.43;;;8.90;;
20449;SDS011;10384;51.940;8.432;2023-05-21T14:02:54;14.77;;;8.60;;
20449;SDS011;10384;51.940;8.432;2023-05-21T14:05:20;15.17;;;9.13;;
20449;SDS011;10384;51.940;8.432;2023-05-21T14:07:46;14.00;;;9.13;;
20449;SDS011;10384;51.940;8.432;2023-05-21T14:10:12;15.07;;;9.43;;
20449;SDS011;10384;51.940;8.432;2023-05-21T14:12:38;17.67;;;10.20;;
20449;SDS011;10384;51.940;8.432;2023-05-21T14:15:05;16.37;;;9.23;;
20449;SDS011;10384;51.940;8.432;2023-05-21T14:17:31;16.03;;;8.90;;
20449;SDS011;10384;51.940;8.432;2023-05-21T14:19:57;17.93;;;10.03;;
20449;SDS011;10384;51.940;8.432;2023-05-21T14:22:23;16.63;;;10.03;;
20449;SDS011;10384;51.940;8.432;2023-05-21T14:24:49;17.23;;;9.63;;
20449;SDS011;10384;51.940;8.432;2023-05-21T14:27:16;16.27;;;9.17;;
20449;SDS011;10384;51.940;8.432;2023-05-21T14:29:42;23.87;;;12.87;;
20449;SDS011;10384;51.940;8.432;2023-05-21T14:32:08;15.63;;;10.07;;
20449;SDS011;10384;51.940;8.432;2023-05-21T14:34:34;16.20;;;9.43;;
20449;SDS011;10384;51.940;8.432;2023-05-21T14:37:02;15.83;;;9.70;;
20449;SDS011;10384;51.940;8.432;2023-05-21T14:39:28;17.23;;;11.10;;
20449;SDS011;10384;51.940;8.432;2023-05-21T14:41:54;15.40;;;8.77;;
20449;SDS011;10384;51.940;8.432;2023-05-21T14:44:20;15.53;;;9.43;;
20449;SDS011;10384;51.940;8.432;2023-05-21T14:46:46;17.37;;;9.90;;
20449;SDS011;10384;51.940;8.432;2023-05-21T14:49:12;20.57;;;10.53;;
20449;SDS011;10384;51.940;8.432;2023-05-21T14:51:38;16.47;;;10.70;;
20449;SDS011;10384;51.940;8.432;2023-05-21T14:54:04;18.30;;;10.33;;